createdAt,value
2017-11-27T00:00:38.988Z,7.20
2017-11-27T00:03:05.907Z,6.13
2017-11-27T00:05:33.253Z,6.13
2017-11-27T00:08:00.615Z,6.97
2017-11-27T00:10:27.927Z,6.80
2017-11-27T00:12:54.814Z,10.07
2017-11-27T00:15:22.094Z,7.27
2017-11-27T00:17:49.023Z,7.80
2017-11-27T00:20:16.014Z,7.70
2017-11-27T00:22:42.928Z,8.93
2017-11-27T00:25:09.909Z,6.73
2017-11-27T00:27:36.898Z,7.60
2017-11-27T00:30:03.846Z,7.80
2017-11-27T00:32:30.737Z,6.90
2017-11-27T00:34:57.628Z,6.50
2017-11-27T00:37:24.559Z,7.67
2017-11-27T00:39:51.464Z,11.10
2017-11-27T00:42:18.375Z,7.03
2017-11-27T00:44:45.324Z,7.83
2017-11-27T00:47:12.670Z,6.97
2017-11-27T00:49:39.614Z,6.90
2017-11-27T00:52:06.563Z,7.00
2017-11-27T00:54:33.460Z,6.90
2017-11-27T00:57:00.371Z,7.57
2017-11-27T00:59:27.666Z,7.10
2017-11-27T01:01:54.667Z,8.80
2017-11-27T01:04:22.016Z,7.43
2017-11-27T01:06:49.005Z,7.03
2017-11-27T01:09:15.882Z,7.73
2017-11-27T01:11:42.859Z,7.60
2017-11-27T01:14:10.138Z,7.07
2017-11-27T01:16:37.058Z,8.53
2017-11-27T01:19:03.978Z,7.27
2017-11-27T01:21:30.944Z,8.63
2017-11-27T01:23:57.862Z,9.50
2017-11-27T01:26:24.988Z,7.40
2017-11-27T01:28:51.891Z,8.13
2017-11-27T01:31:18.944Z,9.03
2017-11-27T01:33:46.310Z,11.53
2017-11-27T01:36:13.677Z,6.87
2017-11-27T01:38:40.599Z,7.57
2017-11-27T01:41:07.878Z,10.27
2017-11-27T01:43:34.802Z,6.93
2017-11-27T01:46:02.137Z,9.30
2017-11-27T01:48:29.015Z,7.83
2017-11-27T01:50:56.304Z,6.90
2017-11-27T01:53:23.225Z,7.67
2017-11-27T01:55:50.108Z,5.90
2017-11-27T01:58:16.990Z,5.60
2017-11-27T02:00:44.349Z,7.53
2017-11-27T02:03:11.696Z,6.53
2017-11-27T02:05:38.575Z,6.43
2017-11-27T02:08:05.502Z,11.87
2017-11-27T02:10:32.786Z,9.60
2017-11-27T02:12:59.714Z,6.40
2017-11-27T02:15:26.619Z,6.67
2017-11-27T02:17:53.507Z,6.67
2017-11-27T02:20:20.421Z,5.03
2017-11-27T02:22:47.306Z,6.10
2017-11-27T02:25:14.226Z,9.93
2017-11-27T02:27:41.503Z,7.33
2017-11-27T02:30:08.419Z,6.33
2017-11-27T02:32:35.772Z,6.10
2017-11-27T02:35:02.676Z,8.40
2017-11-27T02:37:29.663Z,6.63
2017-11-27T02:39:56.589Z,7.43
2017-11-27T02:42:23.477Z,6.80
2017-11-27T02:44:50.376Z,6.67
2017-11-27T02:47:17.302Z,7.87
2017-11-27T02:49:44.191Z,7.70
2017-11-27T02:52:11.139Z,6.53
2017-11-27T02:54:38.188Z,7.83
2017-11-27T02:57:05.135Z,4.70
2017-11-27T02:59:32.024Z,5.10
2017-11-27T03:01:58.938Z,9.40
2017-11-27T03:04:26.283Z,4.53
2017-11-27T03:06:53.227Z,3.90
2017-11-27T03:09:20.510Z,4.10
2017-11-27T03:11:47.433Z,3.73
2017-11-27T03:14:14.726Z,5.90
2017-11-27T03:16:41.612Z,4.93
2017-11-27T03:19:08.577Z,4.77
2017-11-27T03:21:35.931Z,2.60
2017-11-27T03:24:03.284Z,3.53
2017-11-27T03:26:30.199Z,3.13
2017-11-27T03:28:57.180Z,3.33
2017-11-27T03:31:24.092Z,4.20
2017-11-27T03:33:50.971Z,5.17
2017-11-27T03:36:18.288Z,3.60
2017-11-27T03:38:45.215Z,4.87
2017-11-27T03:41:12.099Z,8.23
2017-11-27T03:43:38.993Z,6.57
2017-11-27T03:46:06.021Z,5.67
2017-11-27T03:48:33.372Z,3.70
2017-11-27T03:51:00.682Z,3.20
2017-11-27T03:53:27.663Z,4.00
2017-11-27T03:55:54.619Z,3.27
2017-11-27T03:58:21.972Z,2.80
2017-11-27T04:00:48.917Z,4.80
2017-11-27T04:03:15.832Z,6.67
2017-11-27T04:05:42.806Z,4.80
2017-11-27T04:08:09.688Z,3.80
2017-11-27T04:10:36.678Z,3.70
2017-11-27T04:13:03.565Z,3.27
2017-11-27T04:15:30.867Z,5.40
2017-11-27T04:17:57.781Z,5.03
2017-11-27T04:20:24.712Z,4.50
2017-11-27T04:22:52.002Z,4.17
2017-11-27T04:25:18.910Z,3.67
2017-11-27T04:27:46.200Z,5.47
2017-11-27T04:30:13.107Z,5.23
2017-11-27T04:32:40.390Z,4.33
2017-11-27T04:35:07.293Z,6.40
2017-11-27T04:37:34.605Z,4.87
2017-11-27T04:40:01.493Z,4.17
2017-11-27T04:42:28.851Z,6.73
2017-11-27T04:44:56.168Z,6.40
2017-11-27T04:47:23.113Z,6.13
2017-11-27T04:49:50.095Z,5.00
2017-11-27T04:52:17.037Z,5.57
2017-11-27T04:54:43.986Z,4.20
2017-11-27T04:57:10.890Z,4.30
2017-11-27T04:59:37.795Z,3.53
2017-11-27T05:02:05.135Z,6.10
2017-11-27T05:04:32.063Z,5.97
2017-11-27T05:06:59.029Z,6.10
2017-11-27T05:09:26.318Z,3.43
2017-11-27T05:11:53.233Z,4.00
2017-11-27T05:14:20.593Z,5.93
2017-11-27T05:16:47.949Z,3.90
2017-11-27T05:19:15.259Z,4.20
2017-11-27T05:21:42.140Z,4.57
2017-11-27T05:24:09.083Z,5.87
2017-11-27T05:26:36.030Z,3.70
2017-11-27T05:29:02.915Z,4.63
2017-11-27T05:31:29.819Z,4.77
2017-11-27T05:33:56.766Z,6.60
2017-11-27T05:36:23.656Z,5.10
2017-11-27T05:38:50.662Z,4.30
2017-11-27T05:41:17.606Z,8.33
2017-11-27T05:43:44.564Z,6.67
2017-11-27T05:46:11.844Z,5.57
2017-11-27T05:48:38.767Z,13.53
2017-11-27T05:51:05.718Z,6.07
2017-11-27T05:53:33.055Z,7.00
2017-11-27T05:56:00.008Z,7.83
2017-11-27T05:58:27.315Z,8.10
2017-11-27T06:00:54.230Z,7.43
2017-11-27T06:03:21.195Z,6.50
2017-11-27T06:05:48.083Z,6.63
2017-11-27T06:08:14.995Z,7.13
2017-11-27T06:10:41.995Z,6.70
2017-11-27T06:13:09.330Z,6.30
2017-11-27T06:15:36.336Z,6.87
2017-11-27T06:18:03.248Z,6.00
2017-11-27T06:20:30.647Z,9.20
2017-11-27T06:22:57.647Z,6.47
2017-11-27T06:25:25.007Z,6.10
2017-11-27T06:27:52.292Z,11.23
2017-11-27T06:30:19.299Z,6.60
2017-11-27T06:32:46.192Z,10.50
2017-11-27T06:35:13.214Z,7.73
2017-11-27T06:37:40.546Z,5.73
2017-11-27T06:40:07.497Z,5.33
2017-11-27T06:42:34.854Z,4.90
2017-11-27T06:45:02.217Z,5.87
2017-11-27T06:47:29.570Z,5.37
2017-11-27T06:49:56.932Z,6.20
2017-11-27T06:52:24.238Z,6.97
2017-11-27T06:54:51.131Z,5.90
2017-11-27T06:57:18.453Z,4.37
2017-11-27T06:59:45.424Z,4.97
2017-11-27T07:02:12.376Z,4.57
2017-11-27T07:04:39.319Z,7.60
2017-11-27T07:07:06.265Z,4.80
2017-11-27T07:09:33.550Z,6.10
2017-11-27T07:12:00.463Z,5.30
2017-11-27T07:14:27.341Z,5.70
2017-11-27T07:16:54.355Z,8.03
2017-11-27T07:19:21.715Z,6.37
2017-11-27T07:21:48.604Z,5.37
2017-11-27T07:24:15.530Z,4.53
2017-11-27T07:26:42.410Z,5.23
2017-11-27T07:29:09.337Z,7.27
2017-11-27T07:31:36.248Z,7.17
2017-11-27T07:34:03.596Z,5.07
2017-11-27T07:36:30.920Z,5.97
2017-11-27T07:38:57.903Z,5.77
2017-11-27T07:41:24.843Z,5.33
2017-11-27T07:43:51.727Z,8.70
2017-11-27T07:46:18.782Z,11.03
2017-11-27T07:48:45.787Z,5.97
2017-11-27T07:51:12.699Z,10.00
2017-11-27T07:53:39.686Z,7.43
2017-11-27T07:56:07.035Z,11.90
2017-11-27T07:58:33.984Z,8.93
2017-11-27T08:01:01.347Z,9.20
2017-11-27T08:03:28.637Z,13.50
2017-11-27T08:05:55.564Z,13.00
2017-11-27T08:08:22.450Z,8.57
2017-11-27T08:10:49.363Z,9.07
2017-11-27T08:13:16.287Z,8.63
2017-11-27T08:15:43.643Z,8.93
2017-11-27T08:18:10.944Z,8.50
2017-11-27T08:20:37.930Z,11.20
2017-11-27T08:23:04.935Z,7.90
2017-11-27T08:25:31.839Z,8.57
2017-11-27T08:27:59.186Z,12.80
2017-11-27T08:30:26.588Z,9.30
2017-11-27T08:32:53.470Z,9.30
2017-11-27T08:35:20.435Z,10.50
2017-11-27T08:37:47.337Z,10.63
2017-11-27T08:40:14.266Z,12.60
2017-11-27T08:42:41.150Z,10.00
2017-11-27T08:45:08.123Z,9.53
2017-11-27T08:47:35.479Z,12.70
2017-11-27T08:50:02.788Z,10.80
2017-11-27T08:52:29.696Z,12.30
2017-11-27T08:54:57.018Z,14.63
2017-11-27T08:57:23.939Z,11.67
2017-11-27T08:59:50.822Z,12.17
2017-11-27T09:02:18.155Z,13.40
2017-11-27T09:04:45.126Z,12.23
2017-11-27T09:07:12.448Z,12.57
2017-11-27T09:09:39.371Z,14.90
2017-11-27T09:12:06.281Z,13.33
2017-11-27T09:14:33.669Z,14.60
2017-11-27T09:17:00.569Z,12.87
2017-11-27T09:19:27.499Z,20.90
2017-11-27T09:21:54.395Z,11.87
2017-11-27T09:24:21.343Z,12.87
2017-11-27T09:26:48.249Z,16.47
2017-11-27T09:29:15.170Z,14.93
2017-11-27T09:31:42.106Z,11.70
2017-11-27T09:34:09.007Z,16.97
2017-11-27T09:36:36.286Z,14.00
2017-11-27T09:39:03.195Z,12.20
2017-11-27T09:41:30.543Z,11.77
2017-11-27T09:43:57.455Z,12.83
2017-11-27T09:46:24.451Z,11.57
2017-11-27T09:48:51.777Z,15.17
2017-11-27T09:51:18.785Z,12.67
2017-11-27T09:53:45.680Z,17.17
2017-11-27T09:56:12.597Z,16.30
2017-11-27T09:58:39.503Z,13.97
2017-11-27T10:01:06.838Z,13.43
2017-11-27T10:03:34.130Z,12.97
2017-11-27T10:06:01.012Z,14.80
2017-11-27T10:08:27.926Z,14.60
2017-11-27T10:10:54.847Z,13.13
2017-11-27T10:13:22.155Z,13.93
2017-11-27T10:15:49.068Z,11.90
2017-11-27T10:18:15.955Z,15.43
2017-11-27T10:20:42.918Z,15.17
2017-11-27T10:23:09.843Z,13.70
2017-11-27T10:25:36.735Z,11.67
2017-11-27T10:28:03.633Z,13.07
2017-11-27T10:30:30.552Z,11.73
2017-11-27T10:32:57.438Z,11.07
2017-11-27T10:35:24.364Z,11.27
2017-11-27T10:37:51.275Z,11.17
2017-11-27T10:40:18.200Z,12.10
2017-11-27T10:42:45.521Z,12.57
2017-11-27T10:45:12.413Z,10.93
2017-11-27T10:47:39.326Z,9.90
2017-11-27T10:50:06.215Z,12.03
2017-11-27T10:52:33.218Z,10.80
2017-11-27T10:55:00.181Z,11.10
2017-11-27T10:57:27.487Z,10.20
2017-11-27T10:59:54.406Z,12.03
2017-11-27T11:02:21.310Z,10.20
2017-11-27T11:04:48.260Z,9.10
2017-11-27T11:07:15.190Z,11.00
2017-11-27T11:09:42.083Z,11.77
2017-11-27T11:12:08.971Z,10.90
2017-11-27T11:14:35.882Z,10.10
2017-11-27T11:17:02.764Z,9.50
2017-11-27T11:19:29.705Z,9.17
2017-11-27T11:21:56.602Z,10.20
2017-11-27T11:24:23.538Z,9.63
2017-11-27T11:26:50.819Z,10.40
2017-11-27T11:29:17.753Z,8.43
2017-11-27T11:31:45.086Z,6.90
2017-11-27T11:34:11.976Z,7.50
2017-11-27T11:36:38.892Z,7.23
2017-11-27T11:39:06.183Z,6.27
2017-11-27T11:41:33.167Z,6.00
2017-11-27T11:44:00.056Z,5.83
2017-11-27T11:46:26.946Z,5.43
2017-11-27T11:48:53.955Z,4.60
2017-11-27T11:51:20.860Z,4.67
2017-11-27T11:53:47.803Z,4.33
2017-11-27T11:56:14.689Z,4.80
2017-11-27T11:58:41.591Z,4.50
2017-11-27T12:01:08.499Z,5.00
2017-11-27T12:03:35.420Z,4.13
2017-11-27T12:06:02.346Z,4.00
2017-11-27T12:08:29.684Z,4.73
2017-11-27T12:10:56.592Z,4.00
2017-11-27T12:13:23.499Z,4.93
2017-11-27T12:15:50.802Z,3.83
2017-11-27T12:18:17.686Z,3.30
2017-11-27T12:20:44.997Z,3.43
2017-11-27T12:23:11.975Z,4.13
2017-11-27T12:25:40.096Z,4.13
2017-11-27T12:28:07.017Z,3.03
2017-11-27T12:30:34.706Z,4.20
2017-11-27T12:33:01.582Z,2.80
2017-11-27T12:35:28.544Z,5.57
2017-11-27T12:37:55.519Z,3.30
2017-11-27T12:40:22.418Z,3.90
2017-11-27T12:42:49.340Z,3.20
2017-11-27T12:45:16.266Z,2.83
2017-11-27T12:47:43.147Z,2.60
2017-11-27T12:50:10.055Z,2.83
2017-11-27T12:52:36.943Z,3.10
2017-11-27T12:55:03.918Z,2.63
2017-11-27T12:57:30.846Z,2.40
2017-11-27T12:59:57.731Z,3.20
2017-11-27T13:02:25.111Z,2.70
2017-11-27T13:04:52.012Z,3.00
2017-11-27T13:07:18.915Z,2.80
2017-11-27T13:09:45.843Z,3.00
2017-11-27T13:12:12.780Z,3.20
2017-11-27T13:14:39.656Z,2.53
2017-11-27T13:17:06.562Z,4.17
2017-11-27T13:19:33.903Z,3.30
2017-11-27T13:22:00.847Z,2.13
2017-11-27T13:24:28.211Z,3.03
2017-11-27T13:26:55.494Z,3.17
2017-11-27T13:29:22.402Z,2.57
2017-11-27T13:31:49.328Z,2.40
2017-11-27T13:34:16.211Z,2.47
2017-11-27T13:36:43.534Z,2.67
2017-11-27T13:39:10.427Z,3.53
2017-11-27T13:41:37.341Z,2.47
2017-11-27T13:44:04.628Z,3.00
2017-11-27T13:46:31.533Z,2.87
2017-11-27T13:48:58.859Z,2.93
2017-11-27T13:51:25.780Z,3.93
2017-11-27T13:53:52.686Z,2.17
2017-11-27T13:56:20.038Z,2.23
2017-11-27T13:58:46.983Z,4.67
2017-11-27T14:01:13.933Z,2.90
2017-11-27T14:03:41.331Z,2.67
2017-11-27T14:06:08.241Z,2.63
2017-11-27T14:08:35.592Z,3.43
2017-11-27T14:11:02.872Z,2.33
2017-11-27T14:13:29.834Z,2.60
2017-11-27T14:15:56.712Z,2.60
2017-11-27T14:18:23.680Z,2.73
2017-11-27T14:20:50.628Z,3.93
2017-11-27T14:23:17.574Z,4.77
2017-11-27T14:25:44.533Z,3.47
2017-11-27T14:28:11.854Z,2.30
2017-11-27T14:30:38.735Z,2.10
2017-11-27T14:33:06.080Z,2.43
2017-11-27T14:35:33.446Z,4.70
2017-11-27T14:38:00.723Z,2.27
2017-11-27T14:40:27.639Z,1.90
2017-11-27T14:42:54.915Z,1.80
2017-11-27T14:45:21.883Z,1.70
2017-11-27T14:47:48.787Z,1.80
2017-11-27T14:50:15.681Z,2.60
2017-11-27T14:52:42.606Z,1.87
2017-11-27T14:55:09.495Z,1.40
2017-11-27T14:57:36.379Z,2.03
2017-11-27T15:00:03.708Z,1.80
2017-11-27T15:02:30.598Z,2.00
2017-11-27T15:04:57.511Z,1.50
2017-11-27T15:07:24.792Z,1.60
2017-11-27T15:09:51.703Z,1.80
2017-11-27T15:12:18.595Z,1.40
2017-11-27T15:14:45.516Z,1.67
2017-11-27T15:17:12.824Z,1.87
2017-11-27T15:19:39.714Z,2.60
2017-11-27T15:22:07.406Z,1.40
2017-11-27T15:24:34.319Z,1.10
2017-11-27T15:27:01.628Z,1.63
2017-11-27T15:29:28.804Z,1.40
2017-11-27T15:31:55.806Z,1.23
2017-11-27T15:34:22.693Z,1.70
2017-11-27T15:36:49.584Z,1.37
2017-11-27T15:39:16.507Z,1.60
2017-11-27T15:41:43.787Z,1.40
2017-11-27T15:44:10.699Z,1.57
2017-11-27T15:46:37.588Z,1.37
2017-11-27T15:49:04.500Z,2.10
2017-11-27T15:51:31.804Z,3.13
2017-11-27T15:53:58.699Z,1.30
2017-11-27T15:56:26.006Z,1.60
2017-11-27T15:58:52.931Z,1.40
2017-11-27T16:01:19.848Z,1.63
2017-11-27T16:03:47.135Z,1.70
2017-11-27T16:06:14.050Z,1.40
2017-11-27T16:08:41.343Z,2.00
2017-11-27T16:11:08.227Z,1.60
2017-11-27T16:13:35.139Z,2.13
2017-11-27T16:16:02.055Z,1.30
2017-11-27T16:18:28.943Z,1.43
2017-11-27T16:20:55.876Z,5.20
2017-11-27T16:23:22.787Z,6.40
2017-11-27T16:25:50.116Z,6.27
2017-11-27T16:28:17.107Z,9.40
2017-11-27T16:30:44.023Z,15.03
2017-11-27T16:33:11.411Z,3.57
2017-11-27T16:35:38.298Z,2.73
2017-11-27T16:38:05.189Z,4.10
2017-11-27T16:40:32.105Z,2.50
2017-11-27T16:42:59.387Z,3.37
2017-11-27T16:45:26.307Z,5.43
2017-11-27T16:47:53.583Z,1.37
2017-11-27T16:50:20.866Z,1.57
2017-11-27T16:52:47.769Z,1.40
2017-11-27T16:55:15.043Z,3.20
2017-11-27T16:57:41.960Z,1.60
2017-11-27T17:00:09.236Z,1.80
2017-11-27T17:02:36.541Z,1.23
2017-11-27T17:05:03.425Z,1.10
2017-11-27T17:07:30.740Z,1.50
2017-11-27T17:09:57.656Z,1.50
2017-11-27T17:12:24.582Z,1.50
2017-11-27T17:14:51.891Z,1.50
2017-11-27T17:17:18.775Z,1.97
2017-11-27T17:19:46.063Z,1.93
2017-11-27T17:22:12.966Z,1.80
2017-11-27T17:24:40.250Z,1.50
2017-11-27T17:27:07.151Z,1.70
2017-11-27T17:29:34.063Z,1.70
2017-11-27T17:32:00.946Z,1.93
2017-11-27T17:34:27.855Z,1.73
2017-11-27T17:36:54.766Z,1.60
2017-11-27T17:39:21.663Z,1.70
2017-11-27T17:41:48.576Z,1.60
2017-11-27T17:44:15.477Z,1.20
2017-11-27T17:46:42.788Z,1.47
2017-11-27T17:49:09.691Z,1.50
2017-11-27T17:51:36.977Z,1.50
2017-11-27T17:54:03.892Z,1.70
2017-11-27T17:56:31.204Z,1.70
2017-11-27T17:58:58.134Z,1.40
2017-11-27T18:01:25.065Z,1.90
2017-11-27T18:03:51.947Z,1.30
2017-11-27T18:06:18.844Z,1.33
2017-11-27T18:08:45.751Z,1.70
2017-11-27T18:11:12.639Z,1.50
2017-11-27T18:13:39.559Z,1.60
2017-11-27T18:16:06.846Z,1.57
2017-11-27T18:18:33.744Z,1.80
2017-11-27T18:21:01.067Z,1.10
2017-11-27T18:23:27.950Z,1.77
2017-11-27T18:25:54.863Z,1.60
2017-11-27T18:28:21.747Z,1.70
2017-11-27T18:30:49.059Z,1.50
2017-11-27T18:33:15.956Z,1.90
2017-11-27T18:35:43.291Z,1.40
2017-11-27T18:38:10.207Z,2.00
2017-11-27T18:40:37.099Z,1.57
2017-11-27T18:43:04.407Z,1.60
2017-11-27T18:45:31.409Z,1.50
2017-11-27T18:47:58.321Z,1.80
2017-11-27T18:50:25.258Z,1.70
2017-11-27T18:52:52.175Z,1.93
2017-11-27T18:55:19.070Z,1.90
2017-11-27T18:57:45.976Z,1.40
2017-11-27T19:00:12.859Z,2.00
2017-11-27T19:02:39.783Z,1.47
2017-11-27T19:05:06.707Z,1.67
2017-11-27T19:07:33.623Z,1.93
2017-11-27T19:10:00.545Z,1.40
2017-11-27T19:12:27.860Z,1.83
2017-11-27T19:14:54.782Z,1.60
2017-11-27T19:17:21.672Z,1.70
2017-11-27T19:19:48.683Z,1.30
2017-11-27T19:22:15.586Z,1.73
2017-11-27T19:24:42.496Z,2.20
2017-11-27T19:27:09.408Z,3.60
2017-11-27T19:29:36.364Z,1.77
2017-11-27T19:32:03.243Z,1.83
2017-11-27T19:34:30.127Z,1.50
2017-11-27T19:36:57.431Z,1.50
2017-11-27T19:39:24.345Z,1.10
2017-11-27T19:41:51.231Z,1.07
2017-11-27T19:44:18.155Z,1.03
2017-11-27T19:46:45.043Z,0.97
2017-11-27T19:49:11.932Z,1.53
2017-11-27T19:51:38.852Z,1.10
2017-11-27T19:54:06.131Z,1.83
2017-11-27T19:56:33.055Z,1.20
2017-11-27T19:59:00.335Z,0.90
2017-11-27T20:01:27.280Z,1.00
2017-11-27T20:03:54.183Z,1.30
2017-11-27T20:06:21.088Z,0.90
2017-11-27T20:08:48.019Z,1.10
2017-11-27T20:11:14.929Z,1.60
2017-11-27T20:13:42.252Z,1.00
2017-11-27T20:16:09.173Z,0.70
2017-11-27T20:18:36.059Z,1.17
2017-11-27T20:21:02.983Z,2.63
2017-11-27T20:23:29.896Z,3.10
2017-11-27T20:25:56.775Z,1.70
2017-11-27T20:28:23.708Z,1.27
2017-11-27T20:30:50.641Z,1.50
2017-11-27T20:33:17.554Z,1.20
2017-11-27T20:35:44.845Z,1.27
2017-11-27T20:38:11.764Z,1.00
2017-11-27T20:40:39.099Z,1.23
2017-11-27T20:43:06.386Z,0.90
2017-11-27T20:45:33.342Z,1.33
2017-11-27T20:48:00.259Z,0.80
2017-11-27T20:50:27.564Z,1.13
2017-11-27T20:52:54.452Z,1.00
2017-11-27T20:55:21.760Z,0.67
2017-11-27T20:57:48.686Z,1.30
2017-11-27T21:00:15.606Z,1.00
2017-11-27T21:02:42.889Z,1.17
2017-11-27T21:05:09.988Z,0.90
2017-11-27T21:07:37.499Z,1.10
2017-11-27T21:10:04.432Z,0.97
2017-11-27T21:12:31.368Z,1.17
2017-11-27T21:14:58.247Z,0.90
2017-11-27T21:17:25.145Z,0.90
2017-11-27T21:19:52.455Z,0.87
2017-11-27T21:22:19.344Z,1.17
2017-11-27T21:24:46.624Z,1.03
2017-11-27T21:27:13.536Z,0.90
2017-11-27T21:29:40.443Z,1.20
2017-11-27T21:32:07.338Z,1.20
2017-11-27T21:34:34.246Z,0.87
2017-11-27T21:37:01.162Z,1.07
2017-11-27T21:39:28.064Z,0.93
2017-11-27T21:41:54.976Z,1.37
2017-11-27T21:44:21.865Z,0.80
2017-11-27T21:46:49.208Z,1.47
2017-11-27T21:49:16.089Z,1.10
2017-11-27T21:51:42.971Z,1.73
2017-11-27T21:54:09.895Z,1.00
2017-11-27T21:56:36.795Z,1.00
2017-11-27T21:59:04.098Z,1.47
2017-11-27T22:01:30.982Z,1.10
2017-11-27T22:03:57.935Z,1.33
2017-11-27T22:06:24.839Z,0.80
2017-11-27T22:08:51.747Z,1.50
2017-11-27T22:11:19.026Z,0.80
2017-11-27T22:13:45.939Z,0.90
2017-11-27T22:16:13.224Z,1.20
2017-11-27T22:18:40.128Z,1.10
2017-11-27T22:21:07.447Z,1.27
2017-11-27T22:23:34.353Z,1.03
2017-11-27T22:26:01.711Z,1.23
2017-11-27T22:28:28.630Z,1.20
2017-11-27T22:30:55.534Z,1.00
2017-11-27T22:33:22.449Z,1.20
2017-11-27T22:35:49.359Z,1.20
2017-11-27T22:38:16.275Z,1.00
2017-11-27T22:40:43.187Z,1.27
2017-11-27T22:43:10.188Z,2.60
2017-11-27T22:45:37.097Z,1.10
2017-11-27T22:48:04.021Z,1.00
2017-11-27T22:50:30.914Z,0.90
2017-11-27T22:52:57.847Z,1.03
2017-11-27T22:55:24.746Z,1.20
2017-11-27T22:57:52.035Z,1.10
2017-11-27T23:00:19.036Z,1.20
2017-11-27T23:02:45.924Z,1.40
2017-11-27T23:05:12.856Z,1.20
2017-11-27T23:07:39.766Z,1.00
2017-11-27T23:10:06.728Z,1.40
2017-11-27T23:12:34.031Z,0.90
2017-11-27T23:15:00.912Z,1.50
2017-11-27T23:17:27.823Z,1.07
2017-11-27T23:19:54.702Z,1.40
2017-11-27T23:22:21.618Z,0.97
2017-11-27T23:24:48.590Z,1.13
2017-11-27T23:27:15.502Z,0.80
2017-11-27T23:29:42.438Z,0.80
2017-11-27T23:32:09.422Z,0.80
2017-11-27T23:34:36.317Z,0.80
2017-11-27T23:37:03.719Z,1.10
2017-11-27T23:39:30.707Z,0.80
2017-11-27T23:41:58.014Z,1.53
2017-11-27T23:44:24.928Z,1.00
2017-11-27T23:46:51.810Z,1.10
2017-11-27T23:49:18.702Z,1.13
2017-11-27T23:51:46.004Z,1.60
2017-11-27T23:54:13.827Z,1.00
2017-11-27T23:56:40.715Z,0.97
2017-11-27T23:59:07.599Z,0.90
